Time;durP1;ratioP1;P1;durP2;ratioP2;P2;SDS_P1;SDS_P2;PMS_P1;PMS_P2;Temp;Humidity;BMP_temperature;BMP_pressure;BME280_temperature;BME280_humidity;BME280_pressure;Samples;Min_cycle;Max_cycle;Signal;HPM_P1;HPM_P2
2022/03/06 00:00:27;;;;;;;0.73;0.73;;;-3.50;99.90;;;;;;5106978;28;20199;-77
2022/03/06 00:02:53;;;;;;;3.53;1.65;;;-3.60;99.90;;;;;;5087146;28;20679;-77
2022/03/06 00:05:19;;;;;;;0.80;0.80;;;-3.60;99.90;;;;;;5094954;28;20686;-76
2022/03/06 00:07:44;;;;;;;0.90;0.90;;;-3.60;99.90;;;;;;5108417;28;20208;-77
2022/03/06 00:10:11;;;;;;;0.90;0.90;;;-3.60;99.90;;;;;;5109564;28;20271;-77
2022/03/06 00:12:36;;;;;;;0.80;0.80;;;-3.60;99.90;;;;;;5091316;28;20258;-76
2022/03/06 00:15:02;;;;;;;0.80;0.80;;;-3.60;99.90;;;;;;5101031;28;20602;-76
2022/03/06 00:17:28;;;;;;;0.70;0.70;;;-3.70;99.90;;;;;;5091414;28;20227;-77
2022/03/06 00:19:54;;;;;;;0.90;0.90;;;-3.70;99.90;;;;;;5109772;28;20662;-76
2022/03/06 00:22:19;;;;;;;0.70;0.70;;;-3.70;99.90;;;;;;5109674;28;20203;-76
2022/03/06 00:24:45;;;;;;;0.90;0.90;;;-3.80;99.90;;;;;;5082860;28;20227;-77
2022/03/06 00:27:10;;;;;;;0.80;0.80;;;-3.80;99.90;;;;;;5110224;28;20207;-76
2022/03/06 00:29:36;;;;;;;0.85;0.85;;;-3.80;99.90;;;;;;5109307;28;20282;-75
2022/03/06 00:32:03;;;;;;;0.82;0.82;;;-3.80;99.90;;;;;;5110502;28;20693;-77
2022/03/06 00:34:29;;;;;;;0.80;0.80;;;-3.80;99.90;;;;;;5107829;28;20551;-77
2022/03/06 00:36:55;;;;;;;0.80;0.80;;;-3.90;99.90;;;;;;5110505;28;20198;-76
2022/03/06 00:39:20;;;;;;;0.80;0.80;;;-3.90;99.90;;;;;;5091933;28;20267;-77
2022/03/06 00:41:46;;;;;;;0.80;0.80;;;-3.90;99.90;;;;;;5091033;28;20651;-77
2022/03/06 00:44:12;;;;;;;0.70;0.70;;;-3.90;99.90;;;;;;5107822;28;20550;-78
2022/03/06 00:46:37;;;;;;;0.80;0.80;;;-3.90;99.90;;;;;;5090807;28;20210;-77
2022/03/06 00:49:03;;;;;;;0.90;0.90;;;-3.90;99.90;;;;;;5090232;28;20709;-77
2022/03/06 00:51:29;;;;;;;0.90;0.90;;;-3.90;99.90;;;;;;5107712;28;20211;-77
2022/03/06 00:53:54;;;;;;;0.70;0.70;;;-3.90;99.90;;;;;;5105449;28;20207;-76
2022/03/06 00:56:20;;;;;;;0.87;0.87;;;-3.90;99.90;;;;;;5092898;28;20258;-76
2022/03/06 00:58:45;;;;;;;0.90;0.90;;;-3.90;99.90;;;;;;5106714;28;20200;-75
2022/03/06 01:01:11;;;;;;;1.55;1.45;;;-4.00;99.90;;;;;;5085935;28;20544;-76
2022/03/06 01:03:38;;;;;;;0.80;0.80;;;-4.10;99.90;;;;;;5109828;28;20235;-76
2022/03/06 01:06:03;;;;;;;0.80;0.80;;;-4.10;99.90;;;;;;5108699;28;20627;-76
2022/03/06 01:08:29;;;;;;;0.80;0.80;;;-4.20;99.90;;;;;;5108256;28;20286;-75
2022/03/06 01:10:55;;;;;;;0.90;0.90;;;-4.30;99.90;;;;;;5107459;28;20290;-75
2022/03/06 01:13:21;;;;;;;0.80;0.80;;;-4.40;99.90;;;;;;5107210;28;20204;-75
2022/03/06 01:15:47;;;;;;;0.90;0.90;;;-4.40;99.90;;;;;;5088388;28;20207;-75
2022/03/06 01:18:13;;;;;;;0.90;0.90;;;-4.40;99.90;;;;;;5108901;28;20203;-75
2022/03/06 01:20:40;;;;;;;0.90;0.90;;;-4.50;99.90;;;;;;5090064;28;20272;-75
2022/03/06 01:23:07;;;;;;;0.80;0.80;;;-4.50;99.90;;;;;;5090387;28;20709;-75
2022/03/06 01:25:33;;;;;;;0.80;0.80;;;-4.60;99.90;;;;;;5108281;28;20218;-75
2022/03/06 01:27:59;;;;;;;0.80;0.80;;;-4.50;99.90;;;;;;5107107;28;20222;-76
2022/03/06 01:30:25;;;;;;;0.80;0.80;;;-4.60;99.90;;;;;;5089888;28;20693;-76
2022/03/06 01:32:52;;;;;;;0.90;0.90;;;-4.70;99.90;;;;;;5107195;28;20192;-76
2022/03/06 01:35:19;;;;;;;0.90;0.90;;;-4.70;99.90;;;;;;5088995;28;20256;-76
2022/03/06 01:37:46;;;;;;;0.90;0.90;;;-4.60;99.90;;;;;;5109318;28;20195;-75
2022/03/06 01:40:13;;;;;;;0.80;0.80;;;-4.60;99.90;;;;;;5087651;28;20199;-75
2022/03/06 01:42:40;;;;;;;0.80;0.80;;;-4.70;99.90;;;;;;5091415;28;20200;-76
2022/03/06 01:45:08;;;;;;;0.73;0.73;;;-4.70;99.90;;;;;;5089921;28;20209;-75
2022/03/06 01:47:45;;;;;;;0.90;0.90;;;-4.80;99.90;;;;;;5108376;28;20666;-75
2022/03/06 01:50:18;;;;;;;0.90;0.90;;;-4.90;99.90;;;;;;5075603;28;20570;-75
2022/03/06 01:52:46;;;;;;;0.90;0.90;;;-5.00;99.90;;;;;;5083009;28;20264;-74
2022/03/06 01:55:13;;;;;;;0.77;0.77;;;-5.00;99.90;;;;;;5088503;28;20686;-75
2022/03/06 01:57:40;;;;;;;0.83;0.83;;;-4.90;99.90;;;;;;5091162;28;20195;-75
2022/03/06 02:00:10;;;;;;;0.90;0.90;;;-5.00;99.90;;;;;;5090054;28;20196;-75
2022/03/06 02:02:35;;;;;;;0.80;0.80;;;-5.10;99.90;;;;;;5095208;28;20204;-71
2022/03/06 02:05:01;;;;;;;0.80;0.80;;;-5.20;99.90;;;;;;5112674;28;20615;-70
2022/03/06 02:07:27;;;;;;;0.90;0.90;;;-5.20;99.90;;;;;;5110686;28;20243;-70
2022/03/06 02:09:54;;;;;;;0.80;0.80;;;-5.30;99.90;;;;;;5093742;28;20575;-71
2022/03/06 02:12:26;;;;;;;0.93;0.93;;;-5.40;99.90;;;;;;5109599;28;20207;-70
2022/03/06 02:14:59;;;;;;;0.90;0.90;;;-5.40;99.90;;;;;;5101000;28;20196;-70
2022/03/06 02:17:25;;;;;;;0.90;0.90;;;-5.40;99.90;;;;;;5108173;28;20200;-71
2022/03/06 02:20:00;;;;;;;0.90;0.90;;;-5.50;99.90;;;;;;5111518;28;20662;-70
2022/03/06 02:22:31;;;;;;;0.87;0.87;;;-5.50;99.90;;;;;;5111471;28;20199;-71
2022/03/06 02:24:59;;;;;;;0.90;0.90;;;-5.60;99.90;;;;;;5110155;28;20230;-70
2022/03/06 02:27:25;;;;;;;1.37;1.27;;;-5.70;99.90;;;;;;5093376;28;20623;-70
2022/03/06 02:29:52;;;;;;;0.80;0.80;;;-5.70;99.90;;;;;;5111395;28;20207;-70
2022/03/06 02:32:19;;;;;;;0.80;0.80;;;-5.60;99.90;;;;;;5112628;28;20693;-71
2022/03/06 02:34:47;;;;;;;0.80;0.80;;;-5.50;99.90;;;;;;5111393;28;20651;-70
2022/03/06 02:37:15;;;;;;;0.80;0.80;;;-5.50;99.90;;;;;;5111309;28;20678;-70
2022/03/06 02:39:43;;;;;;;0.90;0.90;;;-5.60;99.90;;;;;;5094113;28;20210;-70
2022/03/06 02:42:09;;;;;;;0.70;0.70;;;-5.70;99.90;;;;;;5091813;28;20207;-70
2022/03/06 02:44:35;;;;;;;0.83;0.83;;;-5.70;99.90;;;;;;5112215;28;20666;-70
2022/03/06 02:47:01;;;;;;;0.90;0.90;;;-5.80;99.90;;;;;;5107164;28;20206;-70
2022/03/06 02:49:27;;;;;;;0.90;0.90;;;-5.80;99.90;;;;;;5101986;28;20196;-70
2022/03/06 02:51:52;;;;;;;0.80;0.80;;;-5.80;99.90;;;;;;5109834;28;20212;-71
2022/03/06 02:54:20;;;;;;;0.90;0.90;;;-5.70;99.90;;;;;;5111504;28;20196;-70
2022/03/06 02:56:49;;;;;;;0.80;0.80;;;-5.70;99.90;;;;;;5058810;28;20235;-70
2022/03/06 02:59:15;;;;;;;0.90;0.90;;;-5.70;99.90;;;;;;5111402;28;20183;-70
2022/03/06 03:01:42;;;;;;;0.80;0.80;;;-5.80;99.90;;;;;;5102624;27;20235;-70
2022/03/06 03:04:11;;;;;;;0.90;0.90;;;-5.80;99.90;;;;;;5112199;28;20775;-70
2022/03/06 03:06:38;;;;;;;0.80;0.80;;;-5.70;99.90;;;;;;5092065;28;20685;-70
2022/03/06 03:09:05;;;;;;;0.90;0.90;;;-5.50;99.90;;;;;;5109784;28;20681;-70
2022/03/06 03:11:32;;;;;;;0.80;0.80;;;-5.00;99.90;;;;;;5110212;28;20704;-70
2022/03/06 03:13:59;;;;;;;0.90;0.90;;;-5.00;99.90;;;;;;5089115;28;20298;-70
2022/03/06 03:16:24;;;;;;;0.80;0.80;;;-5.00;99.90;;;;;;5107742;28;20203;-71
2022/03/06 03:18:50;;;;;;;0.90;0.90;;;-5.20;99.90;;;;;;5099321;28;20207;-70
2022/03/06 03:21:15;;;;;;;0.90;0.90;;;-5.20;99.90;;;;;;5104292;28;20207;-71
2022/03/06 03:23:41;;;;;;;0.90;0.90;;;-5.30;99.90;;;;;;5081552;28;20211;-71
2022/03/06 03:26:07;;;;;;;0.90;0.90;;;-5.40;99.90;;;;;;5102808;28;20260;-70
2022/03/06 03:28:32;;;;;;;0.90;0.90;;;-5.50;99.90;;;;;;5082794;28;20227;-70
2022/03/06 03:30:58;;;;;;;0.80;0.80;;;-5.60;99.90;;;;;;5102921;28;20199;-70
2022/03/06 03:33:24;;;;;;;0.70;0.70;;;-5.70;99.90;;;;;;5101119;28;20241;-70
2022/03/06 03:35:49;;;;;;;0.80;0.80;;;-5.80;99.90;;;;;;5083450;28;20206;-70
2022/03/06 03:38:15;;;;;;;0.70;0.70;;;-5.90;99.90;;;;;;5085139;28;20256;-70
2022/03/06 03:40:41;;;;;;;0.93;0.93;;;-5.90;99.90;;;;;;5080804;28;20199;-70
2022/03/06 03:43:06;;;;;;;0.87;0.87;;;-5.90;99.90;;;;;;5103290;28;20685;-71
2022/03/06 03:45:32;;;;;;;0.90;0.90;;;-6.00;99.90;;;;;;5095631;28;20204;-70
2022/03/06 03:47:58;;;;;;;0.80;0.80;;;-6.00;99.90;;;;;;5076162;28;20208;-71
2022/03/06 03:50:23;;;;;;;0.80;0.80;;;-6.10;99.90;;;;;;5111939;27;20195;-70
2022/03/06 03:52:49;;;;;;;1.00;1.00;;;-6.10;99.90;;;;;;5106756;28;20207;-70
2022/03/06 03:55:15;;;;;;;0.87;0.87;;;-6.10;99.90;;;;;;5093227;28;20610;-70
2022/03/06 03:57:41;;;;;;;0.80;0.80;;;-6.10;99.90;;;;;;5074592;28;20228;-70
2022/03/06 04:00:08;;;;;;;0.80;0.80;;;-6.10;99.90;;;;;;5093320;28;20286;-70
2022/03/06 04:02:34;;;;;;;0.90;0.90;;;-6.10;99.90;;;;;;5091033;28;20732;-70
2022/03/06 04:05:00;;;;;;;0.80;0.80;;;-6.00;99.90;;;;;;5091897;28;20227;-70
2022/03/06 04:07:25;;;;;;;0.90;0.90;;;-6.00;99.90;;;;;;5111074;28;20260;-70
2022/03/06 04:09:51;;;;;;;0.80;0.80;;;-6.00;99.90;;;;;;5094212;28;20219;-70
2022/03/06 04:12:17;;;;;;;0.97;0.97;;;-6.00;99.90;;;;;;5091625;28;20214;-71
2022/03/06 04:14:43;;;;;;;0.90;0.90;;;-6.00;99.90;;;;;;5100518;28;20196;-70
2022/03/06 04:17:09;;;;;;;0.80;0.80;;;-5.90;99.90;;;;;;5107465;28;20589;-70
2022/03/06 04:19:35;;;;;;;0.90;0.90;;;-5.90;99.90;;;;;;5109146;28;20207;-70
2022/03/06 04:22:00;;;;;;;0.97;0.97;;;-5.90;99.90;;;;;;5108131;28;20214;-71
2022/03/06 04:24:26;;;;;;;0.90;0.90;;;-6.00;99.90;;;;;;5108327;28;20238;-71
2022/03/06 04:26:52;;;;;;;0.80;0.80;;;-6.10;99.90;;;;;;5108262;28;20203;-71
2022/03/06 04:29:18;;;;;;;0.80;0.80;;;-6.20;99.90;;;;;;5109179;28;20682;-71
2022/03/06 04:31:44;;;;;;;0.83;0.83;;;-6.30;99.90;;;;;;5108974;28;20713;-70
2022/03/06 04:34:10;;;;;;;0.90;0.90;;;-6.40;99.90;;;;;;5107958;28;20215;-70
2022/03/06 04:36:36;;;;;;;0.87;0.87;;;-6.40;99.90;;;;;;5109001;28;20578;-70
2022/03/06 04:39:02;;;;;;;1.00;1.00;;;-6.40;99.90;;;;;;5090931;28;20215;-70
2022/03/06 04:41:28;;;;;;;0.90;0.90;;;-6.50;99.90;;;;;;5105125;28;20203;-70
2022/03/06 04:43:54;;;;;;;0.97;0.97;;;-6.50;99.90;;;;;;5107750;28;20214;-70
2022/03/06 04:46:20;;;;;;;1.00;1.00;;;-6.50;99.90;;;;;;5089778;28;20208;-71
2022/03/06 04:48:46;;;;;;;3.37;3.07;;;-6.50;99.90;;;;;;5090575;28;20634;-70
2022/03/06 04:51:12;;;;;;;0.90;0.90;;;-6.50;99.90;;;;;;5110191;28;20606;-70
2022/03/06 04:53:38;;;;;;;0.90;0.90;;;-6.60;99.90;;;;;;5074535;28;20201;-70
2022/03/06 04:56:04;;;;;;;0.90;0.90;;;-6.50;99.90;;;;;;5110689;28;20195;-70
2022/03/06 04:58:30;;;;;;;0.80;0.80;;;-6.40;99.90;;;;;;5090505;28;20305;-71
2022/03/06 05:00:56;;;;;;;1.33;1.23;;;-6.40;99.90;;;;;;5088960;28;20291;-70
2022/03/06 05:03:22;;;;;;;1.00;1.00;;;-6.20;99.90;;;;;;5107732;28;20211;-70
2022/03/06 05:05:48;;;;;;;0.90;0.90;;;-6.20;99.90;;;;;;5107267;28;20282;-71
2022/03/06 05:08:14;;;;;;;0.90;0.90;;;-6.20;99.90;;;;;;5108616;28;20207;-70
2022/03/06 05:10:40;;;;;;;1.00;1.00;;;-6.20;99.90;;;;;;5107244;28;20207;-70
2022/03/06 05:13:06;;;;;;;0.90;0.90;;;-6.20;99.90;;;;;;5108610;28;20215;-70
2022/03/06 05:15:31;;;;;;;1.00;1.00;;;-6.20;99.90;;;;;;5107048;28;20214;-70
2022/03/06 05:17:57;;;;;;;1.07;0.97;;;-6.10;99.90;;;;;;5106891;28;20214;-71
2022/03/06 05:20:23;;;;;;;0.90;0.90;;;-6.10;99.90;;;;;;5107222;28;20268;-71
2022/03/06 05:22:48;;;;;;;0.90;0.90;;;-6.10;99.90;;;;;;5109530;28;20203;-70
2022/03/06 05:25:14;;;;;;;0.90;0.90;;;-6.10;99.90;;;;;;5108303;28;20227;-70
2022/03/06 05:27:41;;;;;;;0.90;0.90;;;-6.10;99.90;;;;;;5107038;28;20210;-70
2022/03/06 05:30:10;;;;;;;0.90;0.90;;;-6.20;99.90;;;;;;5091347;28;20218;-71
2022/03/06 05:32:36;;;;;;;0.90;0.90;;;-6.20;99.90;;;;;;5108335;28;20211;-70
2022/03/06 05:35:02;;;;;;;0.90;0.90;;;-6.30;99.90;;;;;;5089207;28;20292;-71
2022/03/06 05:37:29;;;;;;;0.90;0.90;;;-6.40;99.90;;;;;;5106452;28;20201;-70
2022/03/06 05:39:55;;;;;;;0.90;0.90;;;-6.50;99.90;;;;;;5110507;28;20204;-70
2022/03/06 05:42:21;;;;;;;0.83;0.83;;;-6.50;99.90;;;;;;5113174;28;20706;-71
2022/03/06 05:44:47;;;;;;;0.90;0.90;;;-6.60;99.90;;;;;;5096276;28;20233;-70
2022/03/06 05:47:12;;;;;;;0.90;0.90;;;-6.70;99.90;;;;;;5113087;28;20211;-70
2022/03/06 05:49:38;;;;;;;1.00;1.00;;;-6.80;99.90;;;;;;5110984;28;20630;-71
2022/03/06 05:52:04;;;;;;;0.90;0.90;;;-6.80;99.90;;;;;;5111197;28;20287;-70
2022/03/06 05:54:30;;;;;;;1.53;1.43;;;-6.90;99.90;;;;;;5095153;28;20627;-70
2022/03/06 05:56:56;;;;;;;0.90;0.90;;;-7.00;99.90;;;;;;5111172;28;20234;-70
2022/03/06 05:59:22;;;;;;;0.90;0.90;;;-6.90;99.90;;;;;;5110836;28;20715;-71
2022/03/06 06:01:48;;;;;;;0.90;0.90;;;-6.80;99.90;;;;;;5111965;28;20203;-70
2022/03/06 06:04:13;;;;;;;0.80;0.80;;;-6.60;99.90;;;;;;5113290;28;20232;-70
2022/03/06 06:06:39;;;;;;;0.90;0.90;;;-6.50;99.90;;;;;;5092471;28;20199;-70
2022/03/06 06:09:05;;;;;;;0.90;0.90;;;-6.30;99.90;;;;;;5112003;28;20215;-70
2022/03/06 06:11:31;;;;;;;0.90;0.90;;;-6.30;99.90;;;;;;5093853;28;20206;-70
2022/03/06 06:13:57;;;;;;;0.80;0.80;;;-6.30;99.90;;;;;;5108752;28;20207;-70
2022/03/06 06:16:22;;;;;;;0.90;0.90;;;-6.30;99.90;;;;;;5099226;28;20199;-70
2022/03/06 06:18:48;;;;;;;1.00;1.00;;;-6.40;99.90;;;;;;5093576;28;20207;-70
2022/03/06 06:21:16;;;;;;;0.90;0.90;;;-6.40;99.90;;;;;;5106691;28;20202;-70
2022/03/06 06:23:42;;;;;;;3.77;1.37;;;-6.40;99.90;;;;;;5090189;28;20209;-70
2022/03/06 06:26:08;;;;;;;0.90;0.90;;;-6.40;99.90;;;;;;5092229;28;20667;-71
2022/03/06 06:28:34;;;;;;;0.80;0.80;;;-6.40;99.90;;;;;;5111923;28;20260;-70
2022/03/06 06:31:00;;;;;;;0.80;0.80;;;-6.30;99.90;;;;;;5114063;28;20250;-71
2022/03/06 06:33:27;;;;;;;0.90;0.90;;;-6.30;99.90;;;;;;5111812;28;20683;-70
2022/03/06 06:35:53;;;;;;;0.90;0.90;;;-6.10;99.90;;;;;;5093056;28;20249;-70
2022/03/06 06:38:20;;;;;;;0.80;0.80;;;-6.00;99.90;;;;;;5110330;27;20208;-72
2022/03/06 06:40:47;;;;;;;0.90;0.90;;;-5.90;99.90;;;;;;5111989;28;20610;-70
2022/03/06 06:43:13;;;;;;;1.00;1.00;;;-5.80;99.90;;;;;;5111483;28;20202;-70
2022/03/06 06:45:39;;;;;;;0.70;0.70;;;-5.80;99.90;;;;;;5110995;28;20674;-70
2022/03/06 06:48:05;;;;;;;0.90;0.90;;;-5.70;99.90;;;;;;5092506;28;20235;-70
2022/03/06 06:50:32;;;;;;;0.80;0.80;;;-5.60;99.90;;;;;;5111207;28;20505;-70
2022/03/06 06:52:57;;;;;;;0.90;0.90;;;-5.60;99.90;;;;;;5112494;28;20196;-70
2022/03/06 06:55:23;;;;;;;0.90;0.90;;;-5.50;99.90;;;;;;5091755;28;20196;-70
2022/03/06 06:57:49;;;;;;;0.90;0.90;;;-5.50;99.90;;;;;;5110937;28;20191;-70
2022/03/06 07:00:16;;;;;;;0.93;0.93;;;-5.30;99.90;;;;;;5102822;28;20670;-70
2022/03/06 07:02:42;;;;;;;0.90;0.90;;;-5.10;99.90;;;;;;5104029;28;20278;-70
2022/03/06 07:05:09;;;;;;;0.80;0.80;;;-4.90;99.90;;;;;;5111057;28;20341;-70
2022/03/06 07:07:35;;;;;;;0.93;0.93;;;-4.80;99.90;;;;;;5092340;28;20206;-70
2022/03/06 07:10:02;;;;;;;0.90;0.90;;;-4.70;99.90;;;;;;5110689;28;20216;-70
2022/03/06 07:12:28;;;;;;;0.87;0.87;;;-4.50;99.90;;;;;;5091174;28;20195;-71
2022/03/06 07:14:54;;;;;;;0.80;0.80;;;-4.40;99.90;;;;;;5089119;28;20199;-70
2022/03/06 07:17:19;;;;;;;0.80;0.80;;;-4.30;99.90;;;;;;5110578;28;20203;-71
2022/03/06 07:19:45;;;;;;;0.80;0.80;;;-4.20;99.90;;;;;;5112029;28;20283;-71
2022/03/06 07:22:11;;;;;;;0.87;0.87;;;-4.10;99.90;;;;;;5093348;28;20191;-71
2022/03/06 07:24:37;;;;;;;0.80;0.80;;;-3.90;99.90;;;;;;5111810;28;20774;-70
2022/03/06 07:27:03;;;;;;;0.70;0.70;;;-3.80;99.90;;;;;;5127309;27;20272;-71
2022/03/06 07:29:28;;;;;;;0.77;0.77;;;-3.60;99.90;;;;;;5092921;28;20235;-70
2022/03/06 07:31:54;;;;;;;0.80;0.80;;;-3.50;99.90;;;;;;5110962;28;20207;-71
2022/03/06 07:34:20;;;;;;;0.70;0.70;;;-3.40;99.90;;;;;;5077379;28;20201;-71
2022/03/06 07:36:45;;;;;;;0.90;0.90;;;-3.40;99.90;;;;;;5110949;28;20639;-71
2022/03/06 07:39:11;;;;;;;0.80;0.80;;;-3.20;99.90;;;;;;5094166;28;20196;-70
2022/03/06 07:41:36;;;;;;;0.60;0.60;;;-3.10;99.90;;;;;;5092041;28;20200;-72
2022/03/06 07:44:02;;;;;;;0.90;0.90;;;-2.90;99.90;;;;;;5120823;27;20195;-71
2022/03/06 07:46:28;;;;;;;1.30;1.20;;;-2.70;99.90;;;;;;5110146;28;20207;-71
2022/03/06 07:48:53;;;;;;;0.80;0.80;;;-2.50;99.90;;;;;;5090569;28;20349;-72
2022/03/06 07:51:19;;;;;;;0.80;0.80;;;-2.30;99.90;;;;;;5110083;28;20204;-72
2022/03/06 07:53:45;;;;;;;0.90;0.90;;;-2.10;99.90;;;;;;5108623;28;20192;-70
2022/03/06 07:56:11;;;;;;;0.85;0.85;;;-2.00;99.90;;;;;;5102983;28;20289;-70
2022/03/06 07:58:39;;;;;;;0.70;0.70;;;-1.80;99.90;;;;;;5081003;28;20269;-72
2022/03/06 08:01:05;;;;;;;0.80;0.80;;;-1.60;99.90;;;;;;5109677;28;20566;-70
2022/03/06 08:03:30;;;;;;;0.65;0.65;;;-1.40;99.90;;;;;;5086326;28;20196;-71
2022/03/06 08:05:56;;;;;;;0.80;0.80;;;-1.20;99.90;;;;;;5091541;28;20200;-70
2022/03/06 08:08:22;;;;;;;0.80;0.80;;;-1.00;99.90;;;;;;5094233;28;20205;-69
2022/03/06 08:10:48;;;;;;;1.90;1.45;;;-0.70;99.90;;;;;;5108441;28;20200;-70
2022/03/06 08:13:14;;;;;;;0.80;0.80;;;-0.60;99.90;;;;;;5109450;28;20187;-70
2022/03/06 08:15:40;;;;;;;0.80;0.80;;;-0.30;99.90;;;;;;5073563;28;20203;-69
2022/03/06 08:18:06;;;;;;;0.88;0.85;;;-0.10;99.90;;;;;;5110214;28;20214;-72
2022/03/06 08:20:32;;;;;;;0.80;0.80;;;0.10;99.90;;;;;;5110063;28;20278;-71
2022/03/06 08:22:57;;;;;;;0.80;0.80;;;0.30;99.90;;;;;;5126506;27;20191;-71
2022/03/06 08:25:23;;;;;;;0.70;0.70;;;0.50;99.90;;;;;;5091429;28;20220;-70
2022/03/06 08:27:49;;;;;;;1.33;1.23;;;0.70;99.90;;;;;;5109981;28;20203;-71
2022/03/06 08:30:15;;;;;;;0.70;0.70;;;0.90;99.90;;;;;;5075011;28;20215;-70
2022/03/06 08:32:41;;;;;;;0.70;0.70;;;1.20;99.90;;;;;;5105234;28;20738;-70
2022/03/06 08:35:08;;;;;;;0.73;0.73;;;1.60;99.90;;;;;;5110325;28;20298;-69
2022/03/06 08:37:34;;;;;;;0.70;0.70;;;1.90;99.90;;;;;;5109888;28;20670;-69
2022/03/06 08:39:59;;;;;;;0.90;0.90;;;2.20;99.90;;;;;;5109116;28;20203;-69
2022/03/06 08:42:25;;;;;;;0.70;0.70;;;2.40;99.90;;;;;;5080989;28;20196;-69
2022/03/06 08:44:51;;;;;;;0.80;0.80;;;2.60;99.90;;;;;;5100818;28;20211;-70
2022/03/06 08:47:16;;;;;;;0.68;0.68;;;2.80;99.90;;;;;;5107729;28;20214;-70
2022/03/06 08:49:42;;;;;;;0.60;0.60;;;3.00;99.90;;;;;;5089356;28;20272;-70
2022/03/06 08:52:08;;;;;;;0.88;0.88;;;3.10;99.90;;;;;;5108963;28;20199;-70
2022/03/06 08:54:34;;;;;;;1.10;1.10;;;3.40;99.90;;;;;;5091611;28;20191;-71
2022/03/06 08:57:00;;;;;;;0.65;0.65;;;3.60;99.90;;;;;;5108607;28;20195;-71
2022/03/06 08:59:25;;;;;;;0.80;0.80;;;3.70;99.90;;;;;;5109607;28;20675;-70
2022/03/06 09:01:55;;;;;;;0.90;0.90;;;3.90;99.90;;;;;;5091593;28;20211;-70
2022/03/06 09:04:22;;;;;;;0.80;0.80;;;4.10;99.90;;;;;;5073670;28;20288;-71
2022/03/06 09:06:47;;;;;;;0.80;0.80;;;4.30;99.90;;;;;;5091962;28;20201;-71
2022/03/06 09:09:13;;;;;;;0.80;0.80;;;4.70;99.90;;;;;;5109275;28;20203;-70
2022/03/06 09:11:51;;;;;;;0.70;0.70;;;4.90;99.90;;;;;;5076305;28;20222;-69
2022/03/06 09:14:17;;;;;;;0.80;0.80;;;5.00;99.90;;;;;;5090825;28;20206;-70
2022/03/06 09:16:42;;;;;;;0.70;0.70;;;5.10;99.90;;;;;;5092945;28;20207;-71
2022/03/06 09:19:08;;;;;;;3.38;1.30;;;5.40;99.90;;;;;;5092972;28;20195;-71
2022/03/06 09:21:56;;;;;;;;;;;;;;;;;;;;;
2022/03/06 09:24:26;;;;;;;0.90;0.90;;;5.50;99.90;;;;;;5089615;28;20321;-70
2022/03/06 09:26:52;;;;;;;1.00;1.00;;;5.50;99.90;;;;;;5107804;28;20275;-69
2022/03/06 09:29:17;;;;;;;1.00;1.00;;;5.50;99.90;;;;;;5109263;28;20214;-69
2022/03/06 09:31:44;;;;;;;0.90;0.90;;;5.50;99.90;;;;;;5109484;28;20270;-70
2022/03/06 09:34:10;;;;;;;0.70;0.70;;;5.60;99.90;;;;;;5091423;28;20200;-70
2022/03/06 09:36:36;;;;;;;0.70;0.70;;;5.70;99.90;;;;;;5091218;28;20211;-69
2022/03/06 09:39:04;;;;;;;0.70;0.70;;;5.70;99.90;;;;;;5106877;28;20195;-70
2022/03/06 09:41:30;;;;;;;0.80;0.80;;;5.50;99.90;;;;;;5107950;28;20203;-68
2022/03/06 09:43:57;;;;;;;0.80;0.80;;;5.60;99.90;;;;;;5108138;28;20199;-71
2022/03/06 09:46:24;;;;;;;0.80;0.80;;;5.50;99.90;;;;;;5096176;28;20670;-70
2022/03/06 09:48:50;;;;;;;0.80;0.80;;;5.50;99.90;;;;;;5083508;28;20219;-71
2022/03/06 09:51:16;;;;;;;0.80;0.80;;;5.80;99.90;;;;;;5089873;28;20731;-71
2022/03/06 09:53:41;;;;;;;0.90;0.90;;;6.10;99.60;;;;;;5089570;28;20195;-70
2022/03/06 09:56:07;;;;;;;0.80;0.80;;;6.20;98.30;;;;;;5109349;28;20260;-71
2022/03/06 09:58:33;;;;;;;0.80;0.80;;;6.30;99.20;;;;;;5109223;28;20704;-72
2022/03/06 10:00:59;;;;;;;0.70;0.70;;;6.60;98.20;;;;;;5108068;28;20203;-70
2022/03/06 10:03:25;;;;;;;0.70;0.70;;;6.80;97.60;;;;;;5104253;28;20204;-70
2022/03/06 10:05:51;;;;;;;0.80;0.80;;;6.80;96.10;;;;;;5078846;28;20681;-70
2022/03/06 10:08:29;;;;;;;0.80;0.80;;;6.80;97.30;;;;;;5089586;28;20200;-70
2022/03/06 10:10:58;;;;;;;0.70;0.70;;;6.90;96.40;;;;;;5108080;28;20260;-70
2022/03/06 10:13:26;;;;;;;0.70;0.70;;;7.30;95.60;;;;;;5107714;28;20662;-70
2022/03/06 10:16:03;;;;;;;0.70;0.70;;;7.50;95.70;;;;;;5096064;28;20543;-71
2022/03/06 10:18:31;;;;;;;0.60;0.60;;;7.60;94.10;;;;;;5087725;28;20207;-70
2022/03/06 10:21:19;;;;;;;0.70;0.70;;;7.80;96.30;;;;;;5107892;28;20204;-70
2022/03/06 10:23:47;;;;;;;0.70;0.70;;;8.20;93.90;;;;;;5112670;28;20203;-71
2022/03/06 10:26:19;;;;;;;0.68;0.68;;;8.20;93.90;;;;;;5112052;28;20206;-70
2022/03/06 10:28:47;;;;;;;1.00;1.00;;;8.50;92.60;;;;;;5110275;28;20211;-71
2022/03/06 10:31:13;;;;;;;0.70;0.70;;;9.00;93.40;;;;;;5111117;28;20203;-70
2022/03/06 10:33:39;;;;;;;0.70;0.70;;;9.30;90.90;;;;;;5092995;28;20287;-71
2022/03/06 10:36:09;;;;;;;0.70;0.70;;;9.40;92.00;;;;;;5113109;28;20596;-70
2022/03/06 10:38:36;;;;;;;0.70;0.70;;;9.20;91.80;;;;;;5077109;28;20195;-71
2022/03/06 10:41:13;;;;;;;1.25;1.15;;;9.40;90.90;;;;;;5113480;28;20666;-68
2022/03/06 10:43:40;;;;;;;1.10;0.95;;;9.10;91.30;;;;;;5093394;28;20214;-71
2022/03/06 10:46:22;;;;;;;0.77;0.77;;;9.30;90.80;;;;;;5093526;28;20199;-70
2022/03/06 10:48:59;;;;;;;0.65;0.65;;;9.70;89.80;;;;;;5113065;28;20230;-70
2022/03/06 10:51:26;;;;;;;0.60;0.60;;;9.30;90.10;;;;;;5075785;28;20323;-70
2022/03/06 10:54:00;;;;;;;1.00;1.00;;;9.40;89.80;;;;;;5113216;28;20201;-71
2022/03/06 10:56:27;;;;;;;0.60;0.60;;;9.50;90.80;;;;;;5094885;28;20230;-69
2022/03/06 10:58:54;;;;;;;2.25;1.23;;;9.60;90.50;;;;;;5094147;28;20287;-71
2022/03/06 11:01:21;;;;;;;0.55;0.55;;;9.60;87.30;;;;;;5093062;28;20693;-71
2022/03/06 11:03:50;;;;;;;0.68;0.68;;;9.50;90.20;;;;;;5110379;28;20211;-70
2022/03/06 11:06:19;;;;;;;0.60;0.60;;;10.10;91.50;;;;;;5111094;28;20685;-70
2022/03/06 11:08:48;;;;;;;0.70;0.70;;;10.30;88.60;;;;;;5093909;28;20219;-69
2022/03/06 11:11:14;;;;;;;0.60;0.60;;;10.40;88.00;;;;;;5091426;28;20624;-70
2022/03/06 11:13:40;;;;;;;0.80;0.80;;;10.20;88.60;;;;;;5091223;28;20215;-70
2022/03/06 11:16:07;;;;;;;0.77;0.65;;;10.20;89.90;;;;;;5088563;28;20660;-71
2022/03/06 11:18:33;;;;;;;0.60;0.60;;;10.40;84.40;;;;;;5110497;28;20195;-71
2022/03/06 11:21:01;;;;;;;0.60;0.60;;;10.50;86.60;;;;;;5093599;28;20682;-71
2022/03/06 11:23:44;;;;;;;0.60;0.60;;;10.70;84.60;;;;;;5107251;28;20536;-70
2022/03/06 11:26:10;;;;;;;0.60;0.60;;;10.50;85.00;;;;;;5091191;28;20208;-69
2022/03/06 11:28:59;;;;;;;0.60;0.60;;;10.20;84.50;;;;;;5110606;28;20222;-69
2022/03/06 11:31:42;;;;;;;1.75;1.15;;;10.70;86.50;;;;;;5109169;28;20195;-71
2022/03/06 11:34:08;;;;;;;0.60;0.60;;;10.90;85.30;;;;;;5110369;28;20203;-70
2022/03/06 11:36:47;;;;;;;0.63;0.63;;;11.00;84.80;;;;;;5091954;28;20210;-70
2022/03/06 11:39:31;;;;;;;1.25;1.15;;;11.10;81.70;;;;;;5092160;28;20235;-70
2022/03/06 11:42:03;;;;;;;0.70;0.70;;;11.50;80.80;;;;;;5089087;28;20219;-71
2022/03/06 11:44:38;;;;;;;0.68;0.68;;;11.40;81.60;;;;;;5108810;28;20218;-71
2022/03/06 11:47:18;;;;;;;0.50;0.50;;;11.40;78.40;;;;;;5092167;28;20727;-71
2022/03/06 11:49:54;;;;;;;0.50;0.50;;;11.20;83.30;;;;;;5109389;28;20242;-70
2022/03/06 11:52:27;;;;;;;0.70;0.70;;;11.60;80.00;;;;;;5091526;28;20669;-70
2022/03/06 11:54:53;;;;;;;0.50;0.50;;;11.60;85.20;;;;;;5091968;28;20207;-69
2022/03/06 11:57:40;;;;;;;2.92;1.33;;;11.80;77.40;;;;;;5109934;28;20723;-71
2022/03/06 12:00:23;;;;;;;0.60;0.60;;;11.80;82.60;;;;;;5108609;28;20207;-69
2022/03/06 12:02:51;;;;;;;0.50;0.50;;;11.90;83.30;;;;;;5094630;28;20204;-71
2022/03/06 12:05:19;;;;;;;0.60;0.60;;;11.90;77.40;;;;;;5110162;28;20674;-70
2022/03/06 12:07:49;;;;;;;0.50;0.50;;;11.70;75.30;;;;;;5109606;28;20207;-70
2022/03/06 12:10:16;;;;;;;0.50;0.50;;;11.40;77.10;;;;;;5090095;28;20207;-70
2022/03/06 12:12:42;;;;;;;0.60;0.60;;;11.20;75.60;;;;;;5087308;28;20567;-70
2022/03/06 12:15:16;;;;;;;0.60;0.60;;;11.10;76.00;;;;;;5079849;28;20317;-70
2022/03/06 12:17:43;;;;;;;0.50;0.50;;;11.00;73.80;;;;;;5101114;28;20621;-70
2022/03/06 12:20:08;;;;;;;0.55;0.55;;;11.10;79.90;;;;;;5106413;28;20739;-70
2022/03/06 12:22:36;;;;;;;0.50;0.50;;;11.10;78.80;;;;;;5110437;28;20203;-70
2022/03/06 12:25:08;;;;;;;0.60;0.60;;;10.60;75.00;;;;;;5096454;28;20224;-71
2022/03/06 12:27:36;;;;;;;0.60;0.60;;;10.30;76.00;;;;;;5091404;28;20204;-69
2022/03/06 12:30:12;;;;;;;0.60;0.60;;;10.30;74.30;;;;;;5092124;28;20675;-72
2022/03/06 12:32:42;;;;;;;0.60;0.60;;;10.00;74.00;;;;;;5071025;28;20631;-71
2022/03/06 12:35:12;;;;;;;0.60;0.60;;;9.70;77.80;;;;;;5089167;28;20213;-71
2022/03/06 12:37:59;;;;;;;0.60;0.60;;;9.50;75.00;;;;;;5069871;28;20220;-72
2022/03/06 12:40:27;;;;;;;0.70;0.70;;;9.40;74.00;;;;;;5088640;28;20207;-71
2022/03/06 12:43:07;;;;;;;0.70;0.70;;;9.60;73.90;;;;;;5087579;28;20192;-71
2022/03/06 12:45:35;;;;;;;0.60;0.60;;;9.70;77.40;;;;;;5086855;28;20200;-72
2022/03/06 12:48:01;;;;;;;0.70;0.70;;;9.90;75.30;;;;;;5087489;28;20704;-72
2022/03/06 12:50:27;;;;;;;0.60;0.60;;;9.90;76.30;;;;;;5088216;28;20208;-72